Pagina principale
METAR-TAF:

METAR-TAF

Aeroporti :

Aeroporto di Milano-Linate

Milano, Italia

latitudine: 45-26N, longitudine: 009-17E, altezza: 107 m

Osservazione

Il bollettino è stato emesso 39 minuti fa, alle 22:50 UTC
Vento 3 kt da ovest/sud-ovest, variando fra sud e ovest/nord-ovest
Temperature 26°C
Umidità 65%
Pressione 1019 hPa
Visibilità 10 km o più
nessuna nube inferiore a 1500 m e nessun cumulonembo

METAR: LIML 192250Z 25003KT 190V290 CAVOK 26/19 Q1019 NOSIG

Ora: 01:29 (23:29 UTC)

Previsione

Il bollettino è stato emesso 6 ore e 29 minuti fa, alle 17:00 UTC
Previsione valida dal 19 alle 18 UTC al 20 alle 18 UTC
Vento 4 kt da direzioni variabili
Visibilità 10 km o più
Poco nuvoloso ad un'altezza di 5000 ft

TAF: LIML 191700Z 1918/2018 VRB04KT 9999 FEW050

Osservazioni e previsioni meteorologiche di più di 4000 aeroporti (messaggi METAR e TAF).

Le stazioni disponibili sono rappresentate dai dischi gialli e rossi sulla carta.

Puntare il mouse per vedere il nome della stazione.

Clicca sopra per visualizzare le osservazioni e previsioni meteorologiche.

Per cambiare la mappa : fare clic sui pulsanti verdi con una croce nera per ingrandire, il pulsante verde con un trattino per diminuire, o sulla freccia verde per le mappe adiacenti.


METAR-TAF: